Time;durP1;ratioP1;P1;durP2;ratioP2;P2;SDS_P1;SDS_P2;PMS_P1;PMS_P2;Temp;Humidity;BMP_temperature;BMP_pressure;BME280_temperature;BME280_humidity;BME280_pressure;Samples;Min_cycle;Max_cycle;Signal;HPM_P1;HPM_P2
2021/12/16 00:01:49;;;;;;;4.20;2.87;;;;;;;2.09;88.78;100494.31;5114742;28;20728;-68
2021/12/16 00:08:10;;;;;;;3.73;3.03;;;;;;;2.24;88.58;100513.31;5068765;28;20630;-72
2021/12/16 00:10:45;;;;;;;3.63;2.60;;;;;;;2.16;88.66;100504.22;5115109;28;20273;-69
2021/12/16 00:35:15;;;;;;;4.10;2.97;;;;;;;2.11;88.01;100506.38;5119381;28;20284;-71
2021/12/16 00:37:43;;;;;;;4.80;2.60;;;;;;;1.94;87.65;100488.38;5118875;28;20058;-66
2021/12/16 00:40:14;;;;;;;2.92;2.63;;;;;;;1.99;87.13;100495.91;5121214;28;20291;-67
2021/12/16 00:42:52;;;;;;;3.60;2.40;;;;;;;1.91;87.26;100504.38;5126463;28;20190;-70
2021/12/16 00:46:13;;;;;;;6.20;2.37;;;;;;;1.99;86.80;100511.69;5128791;28;20262;-70
2021/12/16 00:56:04;;;;;;;;;;;;;;;1.93;86.98;100512.97;5120646;28;20254;-68
2021/12/16 00:58:37;;;;;;;4.93;2.40;;;;;;;1.72;87.34;100489.13;5119224;28;19916;-65
2021/12/16 01:35:19;;;;;;;3.22;2.70;;;;;;;1.74;87.33;100503.00;5034267;28;20691;-67
2021/12/16 01:41:13;;;;;;;4.63;2.70;;;;;;;1.78;87.36;100501.81;5033947;28;20268;-64
2021/12/16 01:49:24;;;;;;;3.47;2.47;;;;;;;1.80;86.95;100496.47;5118310;28;20697;-64
2021/12/16 01:52:35;;;;;;;8.18;4.18;;;;;;;1.78;86.71;100477.38;5116474;28;20346;-66
2021/12/16 01:57:30;;;;;;;8.23;4.03;;;;;;;1.74;87.38;100470.66;5116776;28;20285;-64
2021/12/16 02:00:11;;;;;;;5.13;2.90;;;;;;;1.75;87.23;100467.09;5098855;28;20316;-62
2021/12/16 02:10:35;;;;;;;6.30;3.33;;;;;;;1.75;86.86;100460.06;5114300;28;20334;-65
2021/12/16 02:29:39;;;;;;;5.87;5.00;;;;;;;1.77;86.57;100466.03;5113639;28;20648;-63
2021/12/16 02:32:28;;;;;;;6.00;3.93;;;;;;;1.71;86.55;100450.69;5115918;28;20307;-67
2021/12/16 02:37:22;;;;;;;5.40;3.77;;;;;;;1.73;86.60;100461.09;5113261;28;20308;-64
2021/12/16 02:39:48;;;;;;;4.70;3.33;;;;;;;1.65;87.09;100456.41;5113224;28;20273;-64
2021/12/16 02:42:20;;;;;;;3.53;3.23;;;;;;;1.65;86.73;100452.94;5113725;28;20402;-63
2021/12/16 02:50:24;;;;;;;6.50;4.00;;;;;;;1.47;86.91;100431.53;5115988;28;20409;-65
2021/12/16 02:52:50;;;;;;;8.53;3.90;;;;;;;1.62;87.04;100445.31;5115218;28;20265;-63
2021/12/16 02:55:18;;;;;;;4.13;3.73;;;;;;;1.50;86.58;100442.63;5113274;28;20728;-64
2021/12/16 02:57:51;;;;;;;6.25;5.10;;;;;;;1.61;87.08;100456.75;5113091;28;20336;-64
2021/12/16 03:00:18;;;;;;;7.53;4.83;;;;;;;1.63;86.76;100436.47;5113182;28;20096;-65
2021/12/16 03:02:48;;;;;;;4.77;4.17;;;;;;;1.54;86.77;100423.09;5094782;28;20258;-63
2021/12/16 03:05:15;;;;;;;11.70;5.77;;;;;;;1.68;87.07;100447.47;5112911;28;20759;-66
2021/12/16 03:07:40;;;;;;;10.07;5.83;;;;;;;1.37;86.72;100397.25;5115490;28;20277;-61
2021/12/16 03:15:29;;;;;;;7.77;5.40;;;;;;;1.68;86.67;100431.72;5115272;28;20330;-62
2021/12/16 03:18:03;;;;;;;7.10;5.30;;;;;;;1.73;86.48;100429.59;5114869;28;20359;-67
2021/12/16 03:38:56;;;;;;;7.50;3.50;;;;;;;1.81;86.19;100448.25;5112631;28;20360;-65
2021/12/16 03:41:22;;;;;;;8.17;3.63;;;;;;;1.76;86.16;100447.75;5112664;28;20258;-65
2021/12/16 03:43:50;;;;;;;8.57;3.97;;;;;;;1.59;86.24;100429.78;5112271;28;20365;-64
2021/12/16 03:46:27;;;;;;;6.73;3.67;;;;;;;1.75;86.23;100453.97;5112158;28;20262;-64
2021/12/16 03:49:21;;;;;;;3.90;3.23;;;;;;;1.63;86.46;100436.47;5112302;28;20338;-64
2021/12/16 03:51:51;;;;;;;4.47;3.07;;;;;;;1.60;86.67;100428.84;5094431;28;20265;-64
2021/12/16 03:54:22;;;;;;;4.73;3.20;;;;;;;1.58;86.43;100422.84;5115230;28;20623;-65
2021/12/16 03:56:55;;;;;;;5.40;3.30;;;;;;;1.58;86.58;100422.84;5100932;28;20409;-63
2021/12/16 03:59:32;;;;;;;5.57;3.63;;;;;;;1.60;86.38;100420.97;5100428;28;20262;-67
2021/12/16 04:02:12;;;;;;;6.73;3.20;;;;;;;1.71;86.73;100434.09;5100091;28;20308;-65
2021/12/16 04:04:41;;;;;;;8.93;4.47;;;;;;;1.69;86.58;100430.75;5099967;28;20371;-69
2021/12/16 04:07:28;;;;;;;10.18;4.88;;;;;;;1.76;87.00;100443.34;5038106;28;20853;-65
2021/12/16 04:09:56;;;;;;;7.30;3.53;;;;;;;1.72;86.89;100418.25;5022445;28;20137;-65
2021/12/16 04:12:26;;;;;;;7.33;3.63;;;;;;;1.87;86.81;100432.03;5037064;28;20302;-63
2021/12/16 04:14:55;;;;;;;6.67;3.20;;;;;;;1.87;86.32;100437.28;5018468;28;20041;-65
2021/12/16 04:17:25;;;;;;;6.07;3.92;;;;;;;1.93;86.17;100438.59;5035632;28;20524;-66
2021/12/16 04:19:51;;;;;;;5.27;3.73;;;;;;;1.82;86.02;100426.28;5052507;28;20044;-69
2021/12/16 04:22:35;;;;;;;7.10;3.67;;;;;;;1.85;86.16;100429.53;5020833;28;20271;-69
2021/12/16 04:25:26;;;;;;;8.33;4.20;;;;;;;1.92;86.13;100423.81;5017076;28;20060;-66
2021/12/16 04:30:42;;;;;;;6.23;4.33;;;;;;;1.92;86.23;100416.75;4776586;27;10854284;-68
2021/12/16 04:33:08;;;;;;;5.97;4.75;;;;;;;1.79;86.26;100395.03;5129498;28;20047;-63
2021/12/16 04:35:40;;;;;;;5.83;5.27;;;;;;;1.75;86.38;100388.31;5130762;28;20125;-66
2021/12/16 04:41:31;;;;;;;7.87;4.40;;;;;;;1.99;86.32;100412.72;5133789;27;20293;-68
2021/12/16 04:44:02;;;;;;;6.73;4.50;;;;;;;1.99;86.26;100406.63;5121923;28;20284;-74
2021/12/16 04:46:42;;;;;;;5.33;4.30;;;;;;;1.66;86.19;100354.88;5138831;28;20269;-66
2021/12/16 04:49:10;;;;;;;12.40;6.03;;;;;;;1.94;86.25;100404.34;5123024;28;20325;-67
2021/12/16 04:51:50;;;;;;;6.00;4.50;;;;;;;1.94;85.85;100403.50;5107917;28;20310;-65
2021/12/16 04:54:36;;;;;;;6.87;5.33;;;;;;;1.98;85.96;100405.78;5141289;27;20265;-66
2021/12/16 04:57:05;;;;;;;6.80;4.53;;;;;;;1.85;86.35;100389.28;5138875;27;20258;-69
2021/12/16 04:59:43;;;;;;;12.80;6.13;;;;;;;1.81;86.41;100383.44;5120293;28;20277;-65
2021/12/16 05:02:38;;;;;;;6.87;5.40;;;;;;;1.84;86.70;100375.34;5137618;28;20269;-67
2021/12/16 05:05:05;;;;;;;12.77;6.43;;;;;;;2.01;86.14;100389.78;5139864;27;20257;-63
2021/12/16 05:07:33;;;;;;;9.47;5.00;;;;;;;2.07;86.13;100394.59;5140379;27;20364;-67
2021/12/16 05:10:22;;;;;;;10.27;5.70;;;;;;;2.07;85.97;100394.59;5134160;28;20252;-63
2021/12/16 05:12:59;;;;;;;10.97;5.50;;;;;;;2.09;85.77;100408.44;5136623;22;20374;-66
2021/12/16 05:15:36;;;;;;;14.37;6.37;;;;;;;2.06;86.11;100419.19;5062197;28;20296;-63
2021/12/16 05:18:07;;;;;;;11.73;5.60;;;;;;;2.03;86.24;100405.47;5052522;28;20275;-64
2021/12/16 05:20:42;;;;;;;9.53;5.27;;;;;;;2.07;85.65;100415.63;5032967;28;20275;-68
2021/12/16 05:28:28;;;;;;;10.53;6.50;;;;;;;2.00;85.64;100414.38;5050244;28;20318;-67
2021/12/16 05:30:55;;;;;;;10.57;6.67;;;;;;;2.01;85.72;100402.91;5047620;28;20264;-66
2021/12/16 05:33:22;;;;;;;8.23;4.80;;;;;;;2.07;85.90;100407.72;5048986;28;20271;-65
2021/12/16 05:35:48;;;;;;;11.10;5.47;;;;;;;1.86;85.97;100369.97;5049066;28;20264;-61
2021/12/16 05:38:15;;;;;;;13.03;5.10;;;;;;;2.07;86.02;100409.53;5048596;28;20276;-65
2021/12/16 05:40:41;;;;;;;7.67;4.73;;;;;;;2.07;85.52;100394.59;5041041;28;20260;-72
2021/12/16 05:43:10;;;;;;;6.60;4.10;;;;;;;2.10;85.75;100404.88;5035629;28;20283;-67
2021/12/16 05:45:37;;;;;;;7.13;5.00;;;;;;;2.07;85.91;100394.59;5034640;28;20260;-63
2021/12/16 05:48:06;;;;;;;4.27;3.87;;;;;;;2.10;85.57;100398.78;5034180;28;20043;-67
2021/12/16 05:50:34;;;;;;;8.40;5.82;;;;;;;1.80;85.59;100370.44;5034149;28;20260;-60
2021/12/16 05:53:00;;;;;;;9.03;5.60;;;;;;;1.98;86.03;100405.78;5034427;28;20103;-63
2021/12/16 05:55:27;;;;;;;9.77;4.43;;;;;;;1.89;86.08;100395.16;5034203;28;20276;-61
2021/12/16 05:57:53;;;;;;;9.07;4.57;;;;;;;1.74;85.74;100360.41;5034084;28;20276;-61
2021/12/16 06:00:24;;;;;;;13.07;4.47;;;;;;;1.89;85.32;100385.47;5033284;28;20268;-62
2021/12/16 06:02:50;;;;;;;14.53;5.53;;;;;;;1.94;86.14;100393.84;5034427;28;20112;-62
2021/12/16 06:05:17;;;;;;;8.93;4.47;;;;;;;1.90;86.33;100386.31;5034411;28;20334;-64
2021/12/16 06:07:43;;;;;;;10.40;4.77;;;;;;;1.97;85.70;100387.50;5034040;28;20252;-61
2021/12/16 06:10:16;;;;;;;10.87;6.67;;;;;;;1.92;86.52;100381.78;5034095;28;20287;-62
2021/12/16 06:12:44;;;;;;;7.20;4.80;;;;;;;1.77;86.26;100354.91;5034130;28;20276;-62
2021/12/16 06:15:24;;;;;;;8.88;4.78;;;;;;;1.96;86.24;100381.44;5032897;28;20330;-61
2021/12/16 06:28:33;;;;;;;9.33;4.90;;;;;;;2.14;85.99;100363.44;5033727;28;20041;-63
2021/12/16 06:31:00;;;;;;;10.23;5.13;;;;;;;2.14;86.22;100356.38;5033878;28;20264;-63
2021/12/16 06:33:26;;;;;;;11.50;4.93;;;;;;;2.24;85.41;100363.53;5034342;28;20933;-62
2021/12/16 06:35:55;;;;;;;9.73;6.00;;;;;;;2.16;85.73;100358.91;5033745;28;20279;-63
2021/12/16 06:38:23;;;;;;;10.57;5.45;;;;;;;2.18;86.41;100356.97;5015256;28;20288;-62
2021/12/16 06:40:49;;;;;;;20.20;6.67;;;;;;;2.20;86.56;100357.69;5031679;28;20407;-62
2021/12/16 06:43:18;;;;;;;15.07;5.43;;;;;;;2.14;86.55;100359.00;5032927;28;20644;-62
2021/12/16 06:45:47;;;;;;;16.02;6.55;;;;;;;2.10;87.27;100343.63;5033963;28;20272;-68
2021/12/16 06:48:21;;;;;;;9.93;6.50;;;;;;;2.10;87.02;100333.09;5033717;28;20049;-70
2021/12/16 06:50:53;;;;;;;13.53;7.10;;;;;;;2.20;87.42;100338.47;5014039;28;20751;-69
2021/12/16 06:53:27;;;;;;;10.90;7.73;;;;;;;2.18;87.63;100341.22;5032229;28;20993;-70
2021/12/16 06:56:03;;;;;;;12.50;8.27;;;;;;;1.70;87.92;100248.69;5034457;28;20267;-69
2021/12/16 06:58:37;;;;;;;16.13;8.17;;;;;;;2.16;87.45;100312.44;5029778;28;20751;-63
2021/12/16 07:01:30;;;;;;;15.53;8.40;;;;;;;2.31;87.15;100322.69;5033812;28;20299;-70
2021/12/16 07:04:06;;;;;;;12.77;8.37;;;;;;;2.27;88.21;100319.47;5028292;28;20854;-65
2021/12/16 07:06:33;;;;;;;17.55;8.48;;;;;;;2.31;88.14;100317.44;5030789;28;20288;-62
2021/12/16 07:09:13;;;;;;;14.73;9.30;;;;;;;2.39;88.11;100320.31;5033034;28;20129;-63
2021/12/16 07:11:42;;;;;;;29.10;9.30;;;;;;;2.36;87.96;100320.56;5030477;28;20374;-64
2021/12/16 07:14:15;;;;;;;17.03;8.77;;;;;;;2.28;88.57;100322.94;5026854;28;20291;-64
2021/12/16 07:16:48;;;;;;;17.83;9.87;;;;;;;2.29;88.31;100320.19;5032756;28;20263;-65
2021/12/16 07:19:24;;;;;;;20.53;9.70;;;;;;;2.39;88.36;100329.03;5034225;28;20359;-64
2021/12/16 07:21:53;;;;;;;27.63;10.90;;;;;;;2.41;88.70;100323.66;5029876;28;20830;-63
2021/12/16 07:24:20;;;;;;;21.70;11.07;;;;;;;2.45;88.61;100330.34;5038914;28;20268;-62
2021/12/16 07:26:49;;;;;;;18.90;9.17;;;;;;;2.45;88.40;100322.47;5056257;22;20779;-67
2021/12/16 07:29:16;;;;;;;21.93;10.43;;;;;;;2.45;88.59;100314.56;5005053;28;20309;-63
2021/12/16 07:31:41;;;;;;;17.60;10.73;;;;;;;2.52;88.29;100323.63;5003590;28;20261;-63
2021/12/16 07:34:09;;;;;;;19.07;10.83;;;;;;;2.44;88.51;100312.91;5001441;28;20625;-67
2021/12/16 07:36:37;;;;;;;22.10;11.07;;;;;;;2.48;88.65;100311.69;5006473;28;20038;-67
2021/12/16 07:39:06;;;;;;;22.95;11.13;;;;;;;2.45;88.33;100317.19;5011873;28;20304;-67
2021/12/16 07:41:33;;;;;;;23.38;11.73;;;;;;;2.45;88.45;100314.56;4999201;28;20034;-66
2021/12/16 07:44:11;;;;;;;29.00;11.33;;;;;;;2.42;88.73;100312.19;5003199;28;20042;-71
2021/12/16 07:46:49;;;;;;;21.05;11.32;;;;;;;2.52;89.04;100318.38;5004366;28;20299;-68
2021/12/16 07:49:18;;;;;;;26.90;10.97;;;;;;;2.47;88.78;100310.88;5004107;28;20505;-69
2021/12/16 07:51:45;;;;;;;30.23;11.90;;;;;;;2.51;88.51;100319.34;5000872;28;20795;-69
2021/12/16 07:54:13;;;;;;;38.87;11.63;;;;;;;2.48;88.25;100314.31;5000772;28;20356;-68
2021/12/16 07:56:39;;;;;;;25.80;11.20;;;;;;;2.39;88.61;100304.56;5001913;28;20281;-67
2021/12/16 07:59:05;;;;;;;28.10;10.17;;;;;;;2.40;88.41;100295.72;4984767;28;20335;-66
2021/12/16 08:01:31;;;;;;;21.33;10.60;;;;;;;2.47;87.96;100307.41;5000753;28;20320;-66
2021/12/16 08:03:57;;;;;;;28.47;12.47;;;;;;;2.51;88.54;100319.34;5003293;28;20260;-62
2021/12/16 08:06:25;;;;;;;21.97;13.47;;;;;;;2.55;88.66;100325.19;5005065;28;20453;-70
2021/12/16 08:08:55;;;;;;;27.27;12.77;;;;;;;2.59;88.91;100322.19;5000543;28;20693;-69
2021/12/16 08:11:22;;;;;;;29.83;12.00;;;;;;;2.55;88.47;100299.72;5002464;28;20042;-70
2021/12/16 08:13:47;;;;;;;30.53;13.43;;;;;;;2.63;88.50;100321.00;5002871;28;20281;-67
2021/12/16 08:16:13;;;;;;;22.70;9.83;;;;;;;2.54;88.66;100303.31;5000826;28;20848;-63
2021/12/16 08:18:38;;;;;;;17.87;9.23;;;;;;;2.57;88.04;100297.81;5003948;28;20031;-74
2021/12/16 08:21:04;;;;;;;20.90;8.87;;;;;;;2.60;88.80;100308.13;5002579;28;20042;-74
2021/12/16 08:23:31;;;;;;;23.73;8.60;;;;;;;2.63;88.03;100310.50;5027223;28;20034;-70
2021/12/16 08:25:57;;;;;;;15.43;9.47;;;;;;;2.64;88.32;100316.59;5004698;28;20298;-69
2021/12/16 08:28:23;;;;;;;19.93;9.23;;;;;;;2.69;88.30;100315.25;5002784;28;20313;-66
2021/12/16 08:30:50;;;;;;;20.57;11.13;;;;;;;2.59;87.85;100290.63;5002133;28;20034;-69
2021/12/16 08:33:18;;;;;;;20.13;10.73;;;;;;;2.76;87.46;100308.53;5001115;28;20284;-67
2021/12/16 08:35:48;;;;;;;17.60;11.17;;;;;;;2.83;87.61;100308.88;5001178;28;20277;-65
2021/12/16 08:38:17;;;;;;;25.27;12.80;;;;;;;2.89;87.65;100312.78;5001263;28;20273;-77
2021/12/16 08:40:44;;;;;;;;;;;;;;;2.99;87.62;100311.09;5010192;28;20269;-69
2021/12/16 08:43:12;;;;;;;22.00;11.13;;;;;;;2.69;86.93;100265.28;5012878;28;19937;-69
2021/12/16 08:45:39;;;;;;;25.40;15.73;;;;;;;2.97;86.77;100307.75;5011405;28;20811;-68
2021/12/16 08:48:06;;;;;;;29.83;15.07;;;;;;;2.80;86.85;100278.41;5007156;28;20283;-77
2021/12/16 08:50:36;;;;;;;20.90;11.83;;;;;;;2.94;86.60;100295.69;5008868;28;20269;-73
2021/12/16 08:53:05;;;;;;;27.43;14.40;;;;;;;2.95;86.76;100291.28;5000618;28;20272;-65
2021/12/16 08:55:32;;;;;;;;;;;;;;;3.03;86.70;100310.72;5000882;28;20272;-63
2021/12/16 08:57:58;;;;;;;18.73;9.80;;;;;;;2.88;86.72;100283.03;5002199;28;19918;-64
2021/12/16 09:00:28;;;;;;;24.93;11.53;;;;;;;2.89;86.40;100294.38;4997540;28;20852;-69
2021/12/16 09:02:54;;;;;;;25.10;11.87;;;;;;;2.84;86.38;100289.50;5010168;28;20292;-72
2021/12/16 09:05:22;;;;;;;16.73;10.83;;;;;;;2.76;86.99;100282.25;5012034;28;20336;-71
2021/12/16 09:07:48;;;;;;;18.50;9.50;;;;;;;2.80;87.01;100288.91;5012380;28;20311;-78
2021/12/16 09:10:22;;;;;;;20.30;8.40;;;;;;;2.80;86.99;100290.72;5012628;28;20280;-77
2021/12/16 09:12:54;;;;;;;17.07;9.80;;;;;;;2.70;87.21;100276.66;5011388;28;20257;-70
2021/12/16 09:15:23;;;;;;;14.60;9.40;;;;;;;2.84;87.40;100292.13;5013966;28;20261;-69
2021/12/16 09:17:51;;;;;;;17.48;11.60;;;;;;;2.83;86.98;100276.47;5016225;28;20265;-74
2021/12/16 09:20:17;;;;;;;17.73;11.07;;;;;;;2.80;87.16;100283.66;5015294;28;20192;-68
2021/12/16 09:22:43;;;;;;;17.03;9.93;;;;;;;2.75;87.22;100277.09;5007358;28;20783;-67
2021/12/16 09:25:09;;;;;;;20.80;10.83;;;;;;;2.73;87.27;100271.97;4995720;28;20087;-64
2021/12/16 09:27:37;;;;;;;15.77;9.57;;;;;;;2.78;87.61;100275.06;4995455;28;20050;-62
2021/12/16 09:30:06;;;;;;;15.00;9.20;;;;;;;2.69;87.47;100265.28;4997906;28;20305;-62
2021/12/16 09:32:32;;;;;;;;;;;;;;;2.79;87.42;100266.22;5029507;28;20308;-62
2021/12/16 09:34:58;;;;;;;12.43;7.13;;;;;;;2.80;87.36;100278.41;5004448;28;19963;-62
2021/12/16 09:37:24;;;;;;;10.63;7.07;;;;;;;2.82;87.55;100277.44;5003797;28;20254;-69
2021/12/16 09:39:51;;;;;;;10.70;7.03;;;;;;;2.76;87.67;100271.72;5087757;22;20308;-76
2021/12/16 09:42:17;;;;;;;15.27;7.20;;;;;;;2.83;86.94;100271.22;5028746;28;20033;-76
2021/12/16 09:44:42;;;;;;;8.80;6.80;;;;;;;2.93;87.13;100278.25;5032935;28;20272;-68
2021/12/16 09:47:13;;;;;;;12.40;7.47;;;;;;;2.92;87.04;100278.38;5041372;28;20073;-74
2021/12/16 09:49:39;;;;;;;9.73;6.67;;;;;;;2.87;86.78;100278.72;5036687;28;20303;-73
2021/12/16 09:52:09;;;;;;;9.37;6.57;;;;;;;2.82;87.50;100275.63;5037244;28;20332;-76
2021/12/16 09:54:39;;;;;;;10.80;8.27;;;;;;;2.91;87.20;100280.16;5036635;28;20272;-70
2021/12/16 09:57:04;;;;;;;15.17;8.20;;;;;;;2.90;87.40;100267.16;5036386;28;20766;-72
2021/12/16 09:59:33;;;;;;;15.67;7.57;;;;;;;2.88;87.45;100256.72;5033659;28;20279;-73
2021/12/16 10:02:03;;;;;;;12.27;8.27;;;;;;;2.99;87.51;100263.75;5037874;28;20408;-70
2021/12/16 10:04:31;;;;;;;13.93;7.23;;;;;;;3.02;86.94;100266.97;5035286;28;20037;-70
2021/12/16 10:07:11;;;;;;;14.43;7.20;;;;;;;3.03;86.53;100255.47;5038490;28;20316;-70
2021/12/16 10:09:42;;;;;;;10.47;6.80;;;;;;;3.03;87.25;100268.63;5037581;28;20307;-70
2021/12/16 10:12:15;;;;;;;11.47;7.60;;;;;;;3.05;87.17;100266.72;5038336;28;20279;-71
2021/12/16 10:17:24;;;;;;;15.53;7.03;;;;;;;3.03;87.13;100260.75;5038266;28;20256;-75
2021/12/16 10:19:58;;;;;;;12.90;6.50;;;;;;;3.00;87.57;100266.25;5024633;28;20264;-67
2021/12/16 10:22:32;;;;;;;12.67;7.33;;;;;;;3.03;87.72;100278.31;5038456;28;20272;-65
2021/12/16 10:25:22;;;;;;;20.27;8.43;;;;;;;2.95;86.96;100278.13;5038326;28;20329;-73
2021/12/16 10:28:07;;;;;;;16.13;10.00;;;;;;;2.91;87.83;100271.44;5037468;28;20275;-68
2021/12/16 10:30:40;;;;;;;14.80;7.87;;;;;;;2.95;87.29;100292.09;5025619;28;20268;-69
2021/12/16 10:33:30;;;;;;;15.63;8.20;;;;;;;2.99;87.41;100290.06;5037485;28;20268;-66
2021/12/16 10:36:05;;;;;;;16.63;8.30;;;;;;;2.91;87.28;100280.16;5042598;28;20265;-68
2021/12/16 10:38:55;;;;;;;16.30;9.20;;;;;;;2.93;87.22;100293.19;5038102;28;20312;-64
2021/12/16 10:41:26;;;;;;;19.47;8.20;;;;;;;2.91;87.26;100285.44;5036994;28;20335;-72
2021/12/16 10:44:01;;;;;;;16.40;8.40;;;;;;;2.91;87.10;100297.75;5039136;28;20282;-69
2021/12/16 10:46:30;;;;;;;16.20;7.77;;;;;;;2.80;87.32;100281.03;5029028;28;20771;-68
2021/12/16 10:49:01;;;;;;;13.53;7.87;;;;;;;2.92;87.24;100302.06;5036247;28;20304;-64
2021/12/16 10:51:44;;;;;;;13.00;8.07;;;;;;;2.89;87.51;100292.63;5037206;28;20821;-63
2021/12/16 10:54:30;;;;;;;13.33;7.63;;;;;;;2.98;87.57;100301.53;5037029;28;20742;-70
2021/12/16 10:57:11;;;;;;;16.27;9.53;;;;;;;3.01;86.97;100306.56;5036825;28;20268;-69
2021/12/16 10:59:43;;;;;;;24.13;10.23;;;;;;;2.98;86.46;100301.53;5038522;28;20268;-71
2021/12/16 11:02:35;;;;;;;17.10;9.43;;;;;;;3.00;86.65;100321.50;5037174;28;20771;-64
2021/12/16 11:05:17;;;;;;;18.30;9.17;;;;;;;2.93;87.19;100308.97;5035338;28;20409;-73
2021/12/16 11:07:51;;;;;;;14.60;9.33;;;;;;;2.92;86.92;100296.78;5035157;28;20313;-74
2021/12/16 11:10:28;;;;;;;13.63;9.33;;;;;;;2.99;86.73;100308.47;5036867;28;20276;-69
2021/12/16 11:13:03;;;;;;;14.93;8.83;;;;;;;2.95;86.80;100297.38;5035450;28;20322;-75
2021/12/16 11:15:35;;;;;;;13.13;8.23;;;;;;;2.99;86.96;100321.63;5035720;28;20355;-70
2021/12/16 11:18:14;;;;;;;18.03;9.57;;;;;;;2.97;87.48;100313.03;5034960;28;20302;-67
2021/12/16 11:20:43;;;;;;;15.83;8.33;;;;;;;2.97;86.57;100305.97;5033465;28;20389;-70
2021/12/16 11:23:15;;;;;;;13.60;8.63;;;;;;;2.94;86.85;100300.97;5036472;28;20264;-67
2021/12/16 11:25:48;;;;;;;13.63;8.70;;;;;;;2.94;86.90;100300.97;5035718;28;20412;-64
2021/12/16 11:28:16;;;;;;;10.30;7.90;;;;;;;2.97;87.24;100299.88;5038485;28;20288;-68
2021/12/16 11:30:54;;;;;;;12.30;7.57;;;;;;;2.94;87.20;100293.06;5035403;28;20591;-66
2021/12/16 11:33:56;;;;;;;11.45;7.78;;;;;;;2.99;86.83;100300.59;5016165;28;20257;-63
2021/12/16 11:36:29;;;;;;;10.07;8.40;;;;;;;2.95;86.88;100296.53;5030506;28;20416;-63
2021/12/16 11:38:59;;;;;;;13.07;7.97;;;;;;;2.99;86.80;100297.94;5035364;28;20248;-68
2021/12/16 11:41:39;;;;;;;9.83;7.00;;;;;;;2.90;86.73;100299.53;5038727;28;20385;-68
2021/12/16 11:47:55;;;;;;;11.82;7.82;;;;;;;2.95;86.93;100301.78;5042732;28;20277;-74
2021/12/16 11:50:40;;;;;;;11.38;7.20;;;;;;;2.82;86.89;100285.31;5035455;28;20050;-72
2021/12/16 11:53:11;;;;;;;15.77;6.53;;;;;;;2.87;86.98;100305.03;5035554;28;20067;-71
2021/12/16 11:55:38;;;;;;;10.70;7.87;;;;;;;2.87;87.27;100325.22;5035817;28;20261;-70
2021/12/16 11:58:07;;;;;;;13.67;8.43;;;;;;;2.85;87.12;100321.91;5039507;28;20283;-70
2021/12/16 12:00:37;;;;;;;20.02;9.48;;;;;;;2.72;86.62;100325.53;5036127;28;20256;-73
2021/12/16 12:03:07;;;;;;;15.37;8.70;;;;;;;2.65;87.03;100316.47;5036359;28;20095;-70
2021/12/16 12:05:42;;;;;;;14.43;8.50;;;;;;;2.64;86.25;100325.31;5033589;28;20715;-65
2021/12/16 12:08:33;;;;;;;15.33;8.73;;;;;;;2.56;87.04;100311.09;5036687;28;20658;-66
2021/12/16 12:11:16;;;;;;;19.77;7.50;;;;;;;2.56;86.43;100313.72;5032689;28;20364;-66
2021/12/16 12:13:46;;;;;;;13.53;6.97;;;;;;;2.46;86.59;100311.81;5035890;28;20367;-75
2021/12/16 12:16:24;;;;;;;16.03;7.90;;;;;;;2.43;86.64;100324.38;5033963;28;20268;-67
2021/12/16 12:18:49;;;;;;;11.43;7.10;;;;;;;2.39;86.58;100320.31;5025488;28;20359;-64
2021/12/16 12:21:29;;;;;;;23.30;9.90;;;;;;;2.39;87.14;100330.84;5034284;28;20703;-64
2021/12/16 12:24:04;;;;;;;37.63;10.60;;;;;;;2.37;86.98;100338.00;5032961;28;20056;-68
2021/12/16 12:26:36;;;;;;;16.57;9.77;;;;;;;2.16;87.35;100320.31;5034352;28;20264;-68
2021/12/16 12:29:30;;;;;;;12.03;8.13;;;;;;;2.27;87.08;100337.03;5028277;28;20382;-67
2021/12/16 12:32:18;;;;;;;9.87;6.93;;;;;;;2.11;87.23;100346.13;5024430;28;20331;-69
2021/12/16 12:34:48;;;;;;;8.10;5.20;;;;;;;1.77;86.62;100312.91;5031708;28;20291;-70
2021/12/16 12:37:18;;;;;;;8.40;5.17;;;;;;;1.79;86.34;100366.13;5033438;28;20360;-69
2021/12/16 12:39:54;;;;;;;6.97;5.80;;;;;;;1.66;86.58;100362.75;5035731;28;20298;-71
2021/12/16 12:42:47;;;;;;;7.53;4.87;;;;;;;1.44;86.39;100359.09;5034960;28;20286;-68
2021/12/16 12:45:17;;;;;;;8.33;5.20;;;;;;;1.18;86.42;100344.47;5034338;28;20330;-66
2021/12/16 12:47:47;;;;;;;10.33;5.47;;;;;;;1.18;86.71;100370.69;5037032;28;20322;-69
2021/12/16 12:50:49;;;;;;;7.50;5.57;;;;;;;1.05;86.27;100394.34;5039999;28;20278;-69
2021/12/16 12:53:50;;;;;;;8.13;3.80;;;;;;;0.87;86.22;100393.91;5047743;28;20288;-72
2021/12/16 12:56:28;;;;;;;7.67;5.13;;;;;;;0.73;86.17;100399.28;5038464;28;20872;-71
2021/12/16 12:59:01;;;;;;;5.47;3.93;;;;;;;0.57;86.38;100411.75;5039927;28;20264;-71
2021/12/16 13:01:40;;;;;;;5.30;3.40;;;;;;;0.19;86.17;100355.03;5038884;28;20310;-69
2021/12/16 13:04:18;;;;;;;4.70;3.13;;;;;;;0.44;85.76;100409.16;5039675;28;20302;-68
2021/12/16 13:06:56;;;;;;;9.98;5.60;;;;;;;0.36;86.15;100389.69;5037282;28;20283;-74
2021/12/16 13:09:25;;;;;;;5.65;3.13;;;;;;;0.32;85.95;100385.63;5022705;28;20048;-71
2021/12/16 13:11:51;;;;;;;4.05;2.75;;;;;;;0.47;85.58;100408.13;5038866;28;20041;-72
2021/12/16 13:28:18;;;;;;;5.97;3.30;;;;;;;0.64;85.02;100407.78;5038190;28;20099;-70
2021/12/16 13:31:02;;;;;;;6.10;3.20;;;;;;;0.53;84.62;100397.19;5038578;28;20283;-69
2021/12/16 13:33:52;;;;;;;3.43;3.13;;;;;;;0.51;84.04;100389.44;5036489;28;20315;-71
2021/12/16 13:36:29;;;;;;;3.53;3.23;;;;;;;0.58;83.85;100413.47;5031420;28;20264;-64
2021/12/16 13:38:57;;;;;;;4.53;3.30;;;;;;;0.54;83.72;100415.44;5032006;28;20272;-66
2021/12/16 13:41:31;;;;;;;;;;;;;;;0.52;83.72;100427.81;5037129;28;20647;-65
2021/12/16 13:44:02;;;;;;;7.23;5.50;;;;;;;0.45;84.09;100420.47;5036984;28;20304;-70
2021/12/16 13:58:15;;;;;;;;;;;;;;;0.45;83.96;100415.25;5032489;28;20402;-67
2021/12/16 13:58:21;;;;;;;;;;;;;;;0.39;83.34;100427.00;5034229;28;19921;-74
2021/12/16 14:03:50;;;;;;;2.70;2.50;;;;;;;0.42;83.44;100433.81;5036142;28;20283;-73
2021/12/16 14:06:33;;;;;;;4.33;2.43;;;;;;;0.43;83.26;100433.69;5040132;28;20283;-73
2021/12/16 14:09:17;;;;;;;2.93;2.73;;;;;;;0.52;83.26;100432.22;5034673;28;20304;-69
2021/12/16 14:17:29;;;;;;;5.43;4.37;;;;;;;0.57;83.38;100441.41;5039244;28;20255;-70
2021/12/16 14:23:06;;;;;;;3.63;2.67;;;;;;;0.61;82.99;100436.84;5038825;28;20310;-70
2021/12/16 14:26:13;;;;;;;9.63;5.30;;;;;;;0.69;83.48;100441.53;5037803;28;20273;-70
2021/12/16 14:48:22;;;;;;;6.53;2.17;;;;;;;0.89;84.38;100452.31;4993797;28;20387;-71
2021/12/16 14:50:51;;;;;;;2.77;2.47;;;;;;;0.93;84.30;100459.00;5017569;28;20272;-73
2021/12/16 14:53:32;;;;;;;2.65;2.33;;;;;;;0.93;84.51;100464.25;5036035;28;20264;-72
2021/12/16 14:56:04;;;;;;;8.60;3.10;;;;;;;0.89;84.51;100457.53;5033352;28;20532;-72
2021/12/16 14:58:30;;;;;;;;;;;;;;;0.96;84.82;100462.34;5035429;28;20632;-70
2021/12/16 15:01:03;;;;;;;8.33;3.53;;;;;;;0.92;85.03;100452.09;5036515;28;19932;-73
2021/12/16 15:03:38;;;;;;;7.93;2.60;;;;;;;0.97;84.39;100449.13;5036535;28;20381;-67
2021/12/16 15:06:18;;;;;;;10.17;3.87;;;;;;;0.75;84.71;100423.59;5038248;28;20323;-69
2021/12/16 15:08:56;;;;;;;3.60;3.30;;;;;;;1.00;84.99;100459.41;5036878;28;20300;-66
2021/12/16 15:11:59;;;;;;;8.10;2.67;;;;;;;0.81;84.84;100428.38;5038826;28;20280;-66
2021/12/16 15:14:52;;;;;;;3.00;2.60;;;;;;;1.03;84.96;100453.09;5036853;28;20045;-65
2021/12/16 15:40:29;;;;;;;8.63;5.00;;;;;;;1.15;85.94;100447.78;5033698;28;20288;-67
2021/12/16 15:42:59;;;;;;;8.68;5.35;;;;;;;0.84;86.21;100391.47;5036682;28;20280;-65
2021/12/16 15:45:37;;;;;;;8.97;5.10;;;;;;;1.24;86.03;100451.56;5037209;28;20132;-67
2021/12/16 15:48:13;;;;;;;9.03;5.83;;;;;;;1.00;85.83;100425.31;5017954;28;20418;-74
2021/12/16 15:50:40;;;;;;;7.77;5.50;;;;;;;1.26;85.92;100462.78;5034909;28;20667;-63
2021/12/16 15:53:11;;;;;;;10.87;7.37;;;;;;;1.30;85.98;100459.00;5036623;28;20272;-64
2021/12/16 15:55:39;;;;;;;7.10;5.40;;;;;;;1.32;85.77;100454.47;5032888;28;20271;-66
2021/12/16 15:58:18;;;;;;;11.10;6.80;;;;;;;1.40;85.63;100461.78;5035994;28;20375;-65